Terminal Aerodrome Forecast
Issued by NWS

Home | Current Version | Previous Version | Text Only | Print | Product List | Glossary On
Versions: 1 2 3 4 5 6 7 8 9 10 11 12 13 14 15 16 17 18
287
FTUS41 KBGM 251137 AAB
TAFELM
TAF AMD
KELM 251137Z 2512/2612 25005KT P6SM SCT080
     FM251600 26010G15KT P6SM BKN060
     FM252300 VRB03KT P6SM BKN060=

USA.gov is the U.S. government's official web portal to all federal, state and local government web resources and services.